Time;durP1;ratioP1;P1;durP2;ratioP2;P2;SDS_P1;SDS_P2;PMS_P1;PMS_P2;Temp;Humidity;BMP_temperature;BMP_pressure;BME280_temperature;BME280_humidity;BME280_pressure;Samples;Min_cycle;Max_cycle;Signal;HPM_P1;HPM_P2
2024/03/07 00:02:18;;;;;;;41.72;25.90;;;7.10;99.90;;;;;;5089411;28;20030;-74
2024/03/07 00:04:44;;;;;;;44.22;26.60;;;7.00;99.90;;;;;;5089050;28;20028;-74
2024/03/07 00:07:10;;;;;;;47.58;27.92;;;7.00;99.90;;;;;;5090234;28;20420;-75
2024/03/07 00:09:35;;;;;;;46.90;27.40;;;7.00;99.90;;;;;;5088880;28;20031;-74
2024/03/07 00:12:02;;;;;;;42.95;26.88;;;7.00;99.90;;;;;;5088885;28;20034;-74
2024/03/07 00:14:28;;;;;;;45.00;27.25;;;7.00;99.90;;;;;;5088056;28;20028;-74
2024/03/07 00:16:57;;;;;;;49.95;28.08;;;6.90;99.90;;;;;;5089842;28;20097;-73
2024/03/07 00:19:26;;;;;;;44.17;27.83;;;6.90;99.90;;;;;;5088439;28;20050;-73
2024/03/07 00:21:53;;;;;;;41.53;26.95;;;6.90;99.90;;;;;;5088162;28;20476;-74
2024/03/07 00:24:19;;;;;;;44.05;27.80;;;6.90;99.90;;;;;;5069349;28;20414;-74
2024/03/07 00:26:45;;;;;;;47.88;28.88;;;6.90;99.90;;;;;;5088019;28;20404;-74
2024/03/07 00:29:11;;;;;;;46.83;28.08;;;6.90;99.90;;;;;;5087865;28;20046;-74
2024/03/07 00:31:37;;;;;;;45.97;27.27;;;6.90;99.90;;;;;;5088050;28;20070;-74
2024/03/07 00:34:02;;;;;;;50.55;29.38;;;6.80;99.90;;;;;;5081678;28;20105;-73
2024/03/07 00:36:28;;;;;;;47.25;27.67;;;6.80;99.90;;;;;;5068426;28;20111;-74
2024/03/07 00:38:53;;;;;;;48.88;28.55;;;6.80;99.90;;;;;;5076844;28;20382;-74
2024/03/07 00:41:20;;;;;;;44.42;27.58;;;6.80;99.90;;;;;;5084536;28;20109;-74
2024/03/07 00:43:46;;;;;;;44.67;28.63;;;6.80;99.90;;;;;;5087229;28;20093;-74
2024/03/07 00:46:12;;;;;;;49.83;29.85;;;6.70;99.90;;;;;;5088171;28;20028;-73
2024/03/07 00:48:38;;;;;;;44.92;28.42;;;6.70;99.90;;;;;;5087101;28;20366;-75
2024/03/07 00:51:04;;;;;;;48.38;27.85;;;6.70;99.90;;;;;;5087641;28;20127;-74
2024/03/07 00:53:30;;;;;;;47.40;28.95;;;6.70;99.90;;;;;;5086706;28;20060;-74
2024/03/07 00:55:56;;;;;;;48.78;29.25;;;6.70;99.90;;;;;;5069095;28;20016;-74
2024/03/07 00:58:22;;;;;;;53.25;28.20;;;6.70;99.90;;;;;;5087140;28;20021;-75
2024/03/07 01:00:48;;;;;;;44.85;28.65;;;6.60;99.90;;;;;;5086936;28;20073;-74
2024/03/07 01:03:13;;;;;;;46.45;28.52;;;6.60;99.90;;;;;;5087078;28;20027;-74
2024/03/07 01:05:43;;;;;;;49.45;28.92;;;6.60;99.90;;;;;;5069101;28;20054;-76
2024/03/07 01:08:09;;;;;;;58.80;29.25;;;6.60;99.90;;;;;;5087071;28;20028;-74
2024/03/07 01:10:34;;;;;;;51.42;29.52;;;6.60;99.90;;;;;;5068685;28;20500;-74
2024/03/07 01:13:02;;;;;;;48.05;27.90;;;6.60;99.90;;;;;;5086711;28;20484;-74
2024/03/07 01:15:32;;;;;;;45.42;30.30;;;6.50;99.90;;;;;;5087623;28;20103;-75
2024/03/07 01:17:58;;;;;;;52.90;28.85;;;6.60;99.90;;;;;;5073018;28;20009;-74
2024/03/07 01:20:25;;;;;;;49.80;29.85;;;6.50;99.90;;;;;;5087281;28;20216;-74
2024/03/07 01:22:51;;;;;;;47.58;29.35;;;6.50;99.90;;;;;;5086394;28;20031;-74
2024/03/07 01:25:18;;;;;;;50.75;28.75;;;6.50;99.90;;;;;;5068829;28;20027;-75
2024/03/07 01:27:44;;;;;;;48.75;29.90;;;6.50;99.90;;;;;;5086692;28;20612;-73
2024/03/07 01:30:10;;;;;;;51.15;30.90;;;6.50;99.90;;;;;;5087068;28;20115;-73
2024/03/07 01:32:36;;;;;;;48.65;29.48;;;6.50;99.90;;;;;;5085901;28;20453;-73
2024/03/07 01:35:02;;;;;;;53.55;32.25;;;6.50;99.90;;;;;;5086905;28;20054;-74
2024/03/07 01:37:28;;;;;;;46.75;29.38;;;6.50;99.90;;;;;;5086464;28;20441;-75
2024/03/07 01:39:54;;;;;;;51.38;30.60;;;6.40;99.90;;;;;;5086388;28;20527;-74
2024/03/07 01:42:20;;;;;;;51.13;29.35;;;6.40;99.90;;;;;;5086906;28;20051;-74
2024/03/07 01:44:46;;;;;;;53.08;30.30;;;6.40;99.90;;;;;;5086486;28;20063;-74
2024/03/07 01:47:12;;;;;;;51.42;29.35;;;6.40;99.90;;;;;;5085930;28;20020;-74
2024/03/07 01:49:38;;;;;;;53.85;30.45;;;6.40;99.90;;;;;;5085861;28;20068;-74
2024/03/07 01:52:05;;;;;;;48.60;27.90;;;6.40;99.90;;;;;;5086556;28;20477;-74
2024/03/07 01:54:31;;;;;;;51.67;30.67;;;6.40;99.90;;;;;;5085931;28;20492;-74
2024/03/07 01:56:58;;;;;;;50.05;31.30;;;6.40;99.90;;;;;;5086349;28;20043;-75
2024/03/07 01:59:24;;;;;;;50.20;29.95;;;6.30;99.90;;;;;;5086239;28;20020;-74
2024/03/07 02:01:50;;;;;;;51.78;31.25;;;6.30;99.90;;;;;;5068447;28;20024;-74
2024/03/07 02:04:16;;;;;;;50.00;31.05;;;6.30;99.90;;;;;;5086535;28;20064;-75
2024/03/07 02:06:42;;;;;;;47.20;30.30;;;6.20;99.90;;;;;;5087290;28;20543;-74
2024/03/07 02:09:08;;;;;;;48.92;29.70;;;6.30;99.90;;;;;;5086912;28;20030;-74
2024/03/07 02:11:34;;;;;;;55.13;30.15;;;6.30;99.90;;;;;;5087362;28;20160;-74
2024/03/07 02:13:59;;;;;;;51.55;30.20;;;6.30;99.90;;;;;;5068366;28;20028;-74
2024/03/07 02:16:25;;;;;;;51.75;31.17;;;6.30;99.90;;;;;;5086583;28;20137;-74
2024/03/07 02:18:51;;;;;;;55.28;31.38;;;6.20;99.90;;;;;;5086338;28;20026;-74
2024/03/07 02:21:17;;;;;;;53.47;30.58;;;6.20;99.90;;;;;;5086988;28;20102;-74
2024/03/07 02:23:43;;;;;;;50.05;30.88;;;6.20;99.90;;;;;;5086507;28;20028;-73
2024/03/07 02:26:09;;;;;;;56.00;30.95;;;6.20;99.90;;;;;;5087661;28;20032;-74
2024/03/07 02:28:35;;;;;;;53.38;30.13;;;6.20;99.90;;;;;;5068015;28;20073;-74
2024/03/07 02:31:01;;;;;;;53.35;29.40;;;6.20;99.90;;;;;;5086495;28;20065;-74
2024/03/07 02:33:26;;;;;;;55.15;31.15;;;6.20;99.90;;;;;;5085381;28;20487;-74
2024/03/07 02:35:52;;;;;;;56.33;33.00;;;6.20;99.90;;;;;;5061540;28;20073;-72
2024/03/07 02:38:19;;;;;;;48.60;31.45;;;6.20;99.90;;;;;;5067087;28;20055;-74
2024/03/07 02:40:48;;;;;;;49.58;29.80;;;6.20;99.90;;;;;;5086204;28;20023;-74
2024/03/07 02:43:14;;;;;;;50.00;29.77;;;6.10;99.90;;;;;;5085721;28;20028;-74
2024/03/07 02:45:40;;;;;;;55.30;31.35;;;6.20;99.90;;;;;;5085811;28;20743;-74
2024/03/07 02:48:09;;;;;;;51.55;30.35;;;6.10;99.90;;;;;;5067274;28;20035;-74
2024/03/07 02:50:38;;;;;;;50.97;30.63;;;6.10;99.90;;;;;;5085510;28;20085;-74
2024/03/07 02:53:04;;;;;;;47.28;31.38;;;6.10;99.90;;;;;;5085254;28;20039;-74
2024/03/07 02:55:31;;;;;;;57.75;31.30;;;6.10;99.90;;;;;;5085952;28;20163;-74
2024/03/07 02:57:58;;;;;;;57.83;31.88;;;6.10;99.90;;;;;;5087131;28;20031;-73
2024/03/07 03:00:29;;;;;;;56.15;31.67;;;6.10;99.90;;;;;;5089887;28;20154;-73
2024/03/07 03:02:55;;;;;;;50.25;31.23;;;6.10;99.90;;;;;;5089334;28;20024;-73
2024/03/07 03:05:22;;;;;;;51.80;29.63;;;6.10;99.90;;;;;;5089751;28;20035;-73
2024/03/07 03:07:54;;;;;;;56.05;29.83;;;6.10;99.90;;;;;;5089209;28;20020;-73
2024/03/07 03:10:28;;;;;;;50.55;29.90;;;6.00;99.90;;;;;;5089899;28;20020;-73
2024/03/07 03:12:57;;;;;;;51.70;31.15;;;6.10;99.90;;;;;;5088883;28;20548;-74
2024/03/07 03:15:23;;;;;;;50.50;31.05;;;6.00;99.90;;;;;;5089723;28;20441;-72
2024/03/07 03:17:49;;;;;;;53.92;30.50;;;6.00;99.90;;;;;;5071519;28;20035;-72
2024/03/07 03:20:24;;;;;;;50.35;31.27;;;6.00;99.90;;;;;;5089768;28;20154;-75
2024/03/07 03:22:50;;;;;;;53.15;29.70;;;6.00;99.90;;;;;;5089202;28;20418;-74
2024/03/07 03:25:17;;;;;;;50.63;30.40;;;6.00;99.90;;;;;;5089434;28;20037;-75
2024/03/07 03:27:43;;;;;;;53.92;30.05;;;6.00;99.90;;;;;;5089416;28;20559;-74
2024/03/07 03:30:13;;;;;;;51.38;30.73;;;6.00;99.90;;;;;;5090025;28;20986;-74
2024/03/07 03:32:39;;;;;;;55.90;31.75;;;6.00;99.90;;;;;;5089012;28;20488;-73
2024/03/07 03:35:05;;;;;;;51.78;30.92;;;6.00;99.90;;;;;;5082079;28;20020;-74
2024/03/07 03:37:31;;;;;;;48.25;29.63;;;6.00;99.90;;;;;;5089151;28;20032;-74
2024/03/07 03:39:56;;;;;;;56.05;31.70;;;6.00;99.90;;;;;;5088074;28;20035;-74
2024/03/07 03:42:22;;;;;;;51.35;30.63;;;6.00;99.90;;;;;;5088981;28;20232;-74
2024/03/07 03:44:48;;;;;;;56.53;31.95;;;6.00;99.90;;;;;;5088488;28;20024;-74
2024/03/07 03:47:13;;;;;;;52.90;32.00;;;6.00;99.90;;;;;;5088857;28;20389;-74
2024/03/07 03:49:39;;;;;;;56.25;31.92;;;5.90;99.90;;;;;;5088283;28;20035;-74
2024/03/07 03:52:05;;;;;;;60.33;32.28;;;5.90;99.90;;;;;;5088843;28;20473;-73
2024/03/07 03:54:30;;;;;;;54.10;30.80;;;5.90;99.90;;;;;;5088397;28;20393;-74
2024/03/07 03:56:57;;;;;;;57.90;31.42;;;5.90;99.90;;;;;;5088578;28;20529;-74
2024/03/07 03:59:23;;;;;;;53.17;31.23;;;5.90;99.90;;;;;;5085078;28;20651;-74
2024/03/07 04:01:48;;;;;;;62.55;33.47;;;5.90;99.90;;;;;;5088315;28;20099;-74
2024/03/07 04:04:14;;;;;;;52.70;30.13;;;5.90;99.90;;;;;;5088039;28;20057;-74
2024/03/07 04:06:40;;;;;;;52.97;32.45;;;5.90;99.90;;;;;;5088383;28;20401;-74
2024/03/07 04:09:06;;;;;;;55.63;32.30;;;5.80;99.90;;;;;;5086707;28;20028;-74
2024/03/07 04:11:32;;;;;;;53.58;32.35;;;5.80;99.90;;;;;;5088460;28;20462;-74
2024/03/07 04:13:58;;;;;;;57.92;32.22;;;5.80;99.90;;;;;;5087400;28;20021;-74
2024/03/07 04:16:23;;;;;;;60.63;32.05;;;5.80;99.90;;;;;;5088018;28;20539;-74
2024/03/07 04:18:49;;;;;;;56.85;32.67;;;5.80;99.90;;;;;;5087325;28;20390;-74
2024/03/07 04:21:15;;;;;;;57.40;32.47;;;5.80;99.90;;;;;;5088176;28;20035;-74
2024/03/07 04:23:41;;;;;;;55.10;32.25;;;5.80;99.90;;;;;;5087416;28;20016;-74
2024/03/07 04:26:08;;;;;;;54.13;31.75;;;5.80;99.90;;;;;;5088005;28;20510;-74
2024/03/07 04:28:34;;;;;;;53.22;31.73;;;5.70;99.90;;;;;;5087052;28;20257;-75
2024/03/07 04:31:00;;;;;;;56.40;32.20;;;5.70;99.90;;;;;;5088115;28;20106;-74
2024/03/07 04:33:26;;;;;;;59.22;32.13;;;5.70;99.90;;;;;;5087444;28;20031;-74
2024/03/07 04:35:52;;;;;;;57.00;33.05;;;5.70;99.90;;;;;;5082488;28;20074;-74
2024/03/07 04:38:18;;;;;;;58.22;31.13;;;5.70;99.90;;;;;;5088041;28;20465;-74
2024/03/07 04:40:43;;;;;;;53.13;30.67;;;5.70;99.90;;;;;;5087888;28;20020;-74
2024/03/07 04:43:09;;;;;;;54.72;31.00;;;5.70;99.90;;;;;;5087969;28;20031;-74
2024/03/07 04:45:35;;;;;;;56.85;32.85;;;5.70;99.90;;;;;;5088085;28;20032;-74
2024/03/07 04:48:00;;;;;;;55.30;30.13;;;5.70;99.90;;;;;;5087959;28;20034;-74
2024/03/07 04:50:26;;;;;;;50.45;29.55;;;5.70;99.90;;;;;;5087772;28;20047;-74
2024/03/07 04:52:52;;;;;;;57.45;31.75;;;5.60;99.90;;;;;;5088108;28;20115;-74
2024/03/07 04:55:20;;;;;;;53.90;32.28;;;5.60;99.90;;;;;;5068941;28;20496;-74
2024/03/07 04:57:46;;;;;;;53.13;31.27;;;5.60;99.90;;;;;;5087836;28;20038;-75
2024/03/07 05:00:15;;;;;;;53.33;32.15;;;5.60;99.90;;;;;;5087063;28;20024;-74
2024/03/07 05:02:43;;;;;;;59.83;32.47;;;5.60;99.90;;;;;;5087513;28;20035;-73
2024/03/07 05:05:08;;;;;;;61.47;32.60;;;5.60;99.90;;;;;;5086979;28;20038;-74
2024/03/07 05:07:37;;;;;;;56.45;31.65;;;5.60;99.90;;;;;;5087277;28;20027;-73
2024/03/07 05:10:07;;;;;;;55.30;30.40;;;5.50;99.90;;;;;;5087077;28;20048;-74
2024/03/07 05:12:33;;;;;;;51.63;30.23;;;5.50;99.90;;;;;;5069196;28;20112;-72
2024/03/07 05:14:58;;;;;;;56.30;32.03;;;5.50;99.90;;;;;;5086670;28;20052;-74
2024/03/07 05:17:24;;;;;;;50.33;31.83;;;5.50;99.90;;;;;;5087811;28;20020;-74
2024/03/07 05:19:50;;;;;;;55.63;30.83;;;5.50;99.90;;;;;;5087158;28;20552;-74
2024/03/07 05:22:17;;;;;;;55.08;31.02;;;5.50;99.90;;;;;;5087467;28;20213;-74
2024/03/07 05:24:43;;;;;;;51.10;29.42;;;5.40;99.90;;;;;;5068641;28;20022;-74
2024/03/07 05:27:11;;;;;;;51.33;30.80;;;5.40;99.90;;;;;;5087198;28;20476;-74
2024/03/07 05:29:37;;;;;;;56.25;30.20;;;5.40;99.90;;;;;;5086290;28;20098;-74
2024/03/07 05:32:23;;;;;;;58.83;32.70;;;5.40;99.90;;;;;;5086712;28;20817;-74
2024/03/07 05:34:49;;;;;;;49.75;29.33;;;5.40;99.90;;;;;;5079879;28;20103;-74
2024/03/07 05:37:15;;;;;;;51.03;30.67;;;5.40;99.90;;;;;;5086931;28;20209;-74
2024/03/07 05:39:40;;;;;;;50.78;29.85;;;5.40;99.90;;;;;;5086540;28;20368;-75
2024/03/07 05:42:07;;;;;;;47.88;29.30;;;5.40;99.90;;;;;;5068299;28;20444;-74
2024/03/07 05:44:33;;;;;;;52.00;28.83;;;5.30;99.90;;;;;;5086546;28;20048;-74
2024/03/07 05:46:59;;;;;;;45.35;29.40;;;5.30;99.90;;;;;;5068026;28;20484;-74
2024/03/07 05:49:24;;;;;;;56.22;29.75;;;5.30;99.90;;;;;;5067677;28;20035;-73
2024/03/07 05:51:50;;;;;;;50.25;30.35;;;5.30;99.90;;;;;;5086451;28;20043;-74
2024/03/07 05:54:16;;;;;;;51.38;29.23;;;5.30;99.90;;;;;;5085847;28;20047;-75
2024/03/07 05:56:41;;;;;;;49.83;28.95;;;5.30;99.90;;;;;;5086202;28;20256;-74
2024/03/07 05:59:09;;;;;;;49.58;28.58;;;5.30;99.90;;;;;;5085824;28;20016;-73
2024/03/07 06:01:35;;;;;;;47.72;28.90;;;5.30;99.90;;;;;;5068437;28;20499;-74
2024/03/07 06:04:02;;;;;;;51.75;29.33;;;5.30;99.90;;;;;;5085748;28;20026;-74
2024/03/07 06:06:28;;;;;;;50.15;30.20;;;5.30;99.90;;;;;;5086577;28;20032;-74
2024/03/07 06:08:54;;;;;;;50.95;29.42;;;5.30;99.90;;;;;;5085618;28;20928;-74
2024/03/07 06:11:21;;;;;;;50.97;29.20;;;5.30;99.90;;;;;;5068407;28;20116;-74
2024/03/07 06:13:49;;;;;;;53.55;31.17;;;5.30;99.90;;;;;;5085325;28;20035;-74
2024/03/07 06:16:15;;;;;;;52.92;29.65;;;5.20;99.90;;;;;;5072671;28;20028;-73
2024/03/07 06:18:42;;;;;;;50.05;30.65;;;5.20;99.90;;;;;;5067357;28;20039;-75
2024/03/07 06:21:08;;;;;;;46.03;26.73;;;5.20;99.90;;;;;;5086279;28;20069;-73
2024/03/07 06:23:34;;;;;;;46.60;28.38;;;5.20;99.90;;;;;;5085648;28;20020;-73
2024/03/07 06:26:00;;;;;;;47.40;26.98;;;5.20;99.90;;;;;;5086065;28;20047;-74
2024/03/07 06:28:29;;;;;;;49.90;29.08;;;5.20;99.90;;;;;;5085635;28;20021;-74
2024/03/07 06:30:55;;;;;;;49.85;28.77;;;5.20;99.90;;;;;;5085949;28;20062;-74
2024/03/07 06:33:21;;;;;;;50.05;28.80;;;5.20;99.90;;;;;;5088713;28;20074;-74
2024/03/07 06:35:47;;;;;;;43.65;27.60;;;5.20;99.90;;;;;;5083169;28;20425;-74
2024/03/07 06:38:13;;;;;;;45.85;27.55;;;5.20;99.90;;;;;;5071929;28;20024;-74
2024/03/07 06:40:40;;;;;;;50.35;27.60;;;5.10;99.90;;;;;;5089806;28;20039;-74
2024/03/07 06:43:06;;;;;;;45.40;27.02;;;5.10;99.90;;;;;;5084072;28;20694;-74
2024/03/07 06:45:33;;;;;;;47.50;26.92;;;5.10;99.90;;;;;;5074939;28;20028;-74
2024/03/07 06:47:59;;;;;;;45.90;27.15;;;5.10;99.90;;;;;;5078810;28;20028;-74
2024/03/07 06:50:25;;;;;;;46.05;28.27;;;5.10;99.90;;;;;;5073813;28;20081;-73
2024/03/07 06:52:50;;;;;;;46.95;25.83;;;5.10;99.90;;;;;;5068735;28;20039;-71
2024/03/07 06:55:17;;;;;;;41.67;26.60;;;5.10;99.90;;;;;;5074350;28;20033;-75
2024/03/07 06:57:44;;;;;;;46.65;26.25;;;5.10;99.90;;;;;;5076506;28;20066;-74
2024/03/07 07:00:11;;;;;;;39.90;25.30;;;5.10;99.90;;;;;;5073411;28;20682;-75
2024/03/07 07:02:38;;;;;;;39.00;24.73;;;5.10;99.90;;;;;;5069441;28;20059;-75
2024/03/07 07:05:10;;;;;;;43.70;25.40;;;5.10;99.90;;;;;;5069051;28;20517;-75
2024/03/07 07:07:41;;;;;;;42.58;25.08;;;5.10;99.90;;;;;;5087069;28;20477;-75
2024/03/07 07:10:09;;;;;;;38.97;24.67;;;5.10;99.90;;;;;;5086062;28;20020;-74
2024/03/07 07:12:36;;;;;;;42.53;24.52;;;5.10;99.90;;;;;;5083549;28;20107;-75
2024/03/07 07:15:03;;;;;;;40.38;26.20;;;5.10;99.90;;;;;;5076399;28;20471;-75
2024/03/07 07:17:29;;;;;;;43.53;25.80;;;5.20;99.90;;;;;;5076318;28;20476;-74
2024/03/07 07:19:56;;;;;;;43.35;26.95;;;5.20;99.90;;;;;;5078038;28;20024;-75
2024/03/07 07:22:22;;;;;;;43.97;26.08;;;5.20;99.90;;;;;;5085471;28;20029;-74
2024/03/07 07:24:47;;;;;;;42.47;23.30;;;5.20;99.90;;;;;;5082222;28;20481;-75
2024/03/07 07:27:13;;;;;;;40.00;24.08;;;5.20;99.90;;;;;;5075586;28;20507;-74
2024/03/07 07:29:39;;;;;;;40.63;24.48;;;5.30;99.90;;;;;;5078511;28;20020;-73
2024/03/07 07:32:05;;;;;;;45.05;26.67;;;5.30;99.90;;;;;;5079312;28;20071;-74
2024/03/07 07:34:31;;;;;;;43.00;25.23;;;5.30;99.90;;;;;;5081911;28;20046;-76
2024/03/07 07:36:57;;;;;;;37.08;23.75;;;5.40;99.90;;;;;;5072265;28;20123;-74
2024/03/07 07:39:23;;;;;;;37.40;24.33;;;5.40;99.90;;;;;;5053029;28;20052;-74
2024/03/07 07:41:49;;;;;;;37.45;24.30;;;5.40;99.90;;;;;;5076358;28;20047;-75
2024/03/07 07:44:15;;;;;;;38.47;23.20;;;5.40;99.90;;;;;;5082453;28;20028;-74
2024/03/07 07:46:41;;;;;;;34.80;22.23;;;5.50;99.90;;;;;;5079072;28;20364;-75
2024/03/07 07:49:07;;;;;;;37.50;24.02;;;5.50;99.90;;;;;;5069080;28;20397;-75
2024/03/07 07:51:32;;;;;;;34.05;22.20;;;5.60;99.90;;;;;;5087380;28;20048;-75
2024/03/07 07:53:59;;;;;;;34.97;22.27;;;5.60;99.90;;;;;;5086796;28;20473;-75
2024/03/07 07:56:28;;;;;;;32.47;21.48;;;5.60;99.90;;;;;;5087479;28;20024;-73
2024/03/07 07:58:53;;;;;;;35.35;22.83;;;5.70;99.90;;;;;;5086768;28;20036;-75
2024/03/07 08:01:21;;;;;;;36.80;23.35;;;5.70;99.90;;;;;;5087655;28;20101;-74
2024/03/07 08:03:49;;;;;;;34.45;23.13;;;5.80;99.90;;;;;;5087616;28;20035;-74
2024/03/07 08:06:15;;;;;;;30.88;20.67;;;5.80;99.90;;;;;;5088675;28;20036;-75
2024/03/07 08:08:40;;;;;;;31.42;21.73;;;5.90;99.90;;;;;;5088413;28;20515;-75
2024/03/07 08:11:08;;;;;;;28.48;19.92;;;5.90;99.90;;;;;;5088720;28;20039;-75
2024/03/07 08:13:33;;;;;;;33.53;21.48;;;6.00;99.90;;;;;;5068541;28;20055;-75
2024/03/07 08:15:59;;;;;;;30.25;20.83;;;6.00;99.90;;;;;;5088077;28;20461;-75
2024/03/07 08:18:25;;;;;;;29.98;21.92;;;6.00;99.90;;;;;;5088380;28;20035;-75
2024/03/07 08:20:51;;;;;;;29.60;20.60;;;6.10;99.90;;;;;;5069680;28;20504;-75
2024/03/07 08:23:17;;;;;;;30.27;19.10;;;6.10;99.90;;;;;;5088619;28;20489;-75
2024/03/07 08:25:42;;;;;;;27.13;20.13;;;6.10;99.90;;;;;;5087732;28;20028;-75
2024/03/07 08:28:08;;;;;;;27.90;18.25;;;6.20;99.90;;;;;;5082949;28;20035;-74
2024/03/07 08:30:34;;;;;;;26.85;18.85;;;6.20;99.90;;;;;;5088200;28;20079;-74
2024/03/07 08:33:02;;;;;;;27.13;18.38;;;6.30;99.90;;;;;;5088075;28;20020;-74
2024/03/07 08:35:31;;;;;;;27.33;19.33;;;6.30;99.90;;;;;;5084431;28;20027;-73
2024/03/07 08:37:57;;;;;;;30.25;18.80;;;6.30;99.90;;;;;;5079635;28;20024;-76
2024/03/07 08:40:32;;;;;;;25.85;19.05;;;6.40;99.90;;;;;;5081093;28;20020;-74
2024/03/07 08:42:58;;;;;;;28.52;19.30;;;6.40;99.90;;;;;;5056183;28;20425;-74
2024/03/07 08:45:28;;;;;;;27.38;19.42;;;6.40;99.90;;;;;;5070697;28;20114;-76
2024/03/07 08:47:56;;;;;;;26.63;17.73;;;6.40;99.90;;;;;;5067344;28;20385;-76
2024/03/07 08:50:22;;;;;;;28.08;19.05;;;6.50;99.90;;;;;;5083225;28;20121;-75
2024/03/07 08:52:49;;;;;;;24.73;18.20;;;6.50;99.90;;;;;;5085537;28;20064;-76
2024/03/07 08:55:16;;;;;;;25.80;17.75;;;6.60;99.90;;;;;;5083319;28;20029;-75
2024/03/07 08:57:45;;;;;;;24.15;17.92;;;6.60;99.90;;;;;;5082698;28;20024;-75
2024/03/07 09:00:22;;;;;;;27.40;18.13;;;6.70;99.90;;;;;;5080873;28;20099;-76
2024/03/07 09:02:48;;;;;;;27.73;18.02;;;6.80;99.90;;;;;;5060997;28;20028;-75
2024/03/07 09:05:15;;;;;;;25.42;19.00;;;6.80;99.90;;;;;;5072703;28;20528;-74
2024/03/07 09:07:41;;;;;;;27.95;18.88;;;6.90;99.90;;;;;;5087619;28;20058;-75
2024/03/07 09:10:07;;;;;;;27.73;16.92;;;7.00;99.90;;;;;;5088453;28;20020;-75
2024/03/07 09:12:33;;;;;;;23.15;15.57;;;7.10;99.90;;;;;;5068662;28;20020;-75
2024/03/07 09:14:58;;;;;;;21.15;15.75;;;7.20;99.90;;;;;;5079170;28;20085;-75
2024/03/07 09:17:24;;;;;;;22.98;16.38;;;7.30;99.90;;;;;;5087059;28;20020;-76
2024/03/07 09:19:50;;;;;;;22.88;16.70;;;7.40;99.90;;;;;;5086663;28;20020;-76
2024/03/07 09:22:15;;;;;;;21.50;16.00;;;7.40;99.90;;;;;;5087611;28;20027;-75
2024/03/07 09:24:41;;;;;;;25.35;18.05;;;7.50;99.90;;;;;;5083512;28;20400;-75
2024/03/07 09:27:08;;;;;;;24.50;16.80;;;7.60;99.90;;;;;;5070953;28;20036;-75
2024/03/07 09:29:33;;;;;;;24.25;16.98;;;7.60;99.90;;;;;;5079363;28;20027;-75
2024/03/07 09:31:59;;;;;;;24.58;17.00;;;7.70;99.90;;;;;;5076534;28;20028;-75
2024/03/07 09:34:25;;;;;;;23.67;16.30;;;7.80;99.90;;;;;;5056310;28;20032;-75
2024/03/07 09:36:51;;;;;;;23.35;16.73;;;7.80;99.90;;;;;;5086729;28;20020;-75
2024/03/07 09:39:18;;;;;;;22.50;16.77;;;7.90;99.90;;;;;;5072530;28;20031;-74
2024/03/07 09:41:44;;;;;;;28.42;17.85;;;8.00;99.90;;;;;;5072796;28;20031;-75
2024/03/07 09:44:22;;;;;;;22.85;16.52;;;8.10;99.90;;;;;;5082775;28;20077;-75
2024/03/07 09:46:48;;;;;;;24.73;17.70;;;8.20;99.90;;;;;;5081153;28;20028;-75
2024/03/07 09:49:14;;;;;;;22.63;16.08;;;8.30;99.90;;;;;;5086235;28;20023;-75
2024/03/07 09:51:42;;;;;;;23.88;17.40;;;8.40;99.90;;;;;;5086478;28;20028;-74
2024/03/07 09:54:09;;;;;;;21.48;16.38;;;8.50;99.90;;;;;;5072428;28;20393;-75
2024/03/07 09:56:36;;;;;;;21.98;15.13;;;8.70;99.90;;;;;;5086672;28;20012;-75
2024/03/07 09:59:04;;;;;;;24.10;16.50;;;8.80;99.90;;;;;;5076875;28;20151;-75
2024/03/07 10:01:36;;;;;;;21.67;16.40;;;8.90;99.90;;;;;;5067645;28;20024;-74
2024/03/07 10:04:11;;;;;;;21.67;15.48;;;9.00;99.90;;;;;;5084137;28;20024;-75
2024/03/07 10:06:39;;;;;;;21.85;15.77;;;9.10;99.90;;;;;;5066731;28;20035;-73
2024/03/07 10:09:06;;;;;;;23.77;15.77;;;9.20;99.90;;;;;;5080143;28;20098;-75
2024/03/07 10:11:32;;;;;;;23.05;16.63;;;9.30;99.90;;;;;;5062900;28;20199;-72
2024/03/07 10:13:58;;;;;;;21.05;14.88;;;9.40;99.90;;;;;;5075882;28;20282;-75
2024/03/07 10:16:24;;;;;;;22.40;16.17;;;9.50;99.90;;;;;;5076912;28;20028;-75
2024/03/07 10:18:50;;;;;;;21.55;14.57;;;9.50;99.90;;;;;;5071278;28;20025;-75
2024/03/07 10:21:19;;;;;;;24.67;16.05;;;9.60;99.90;;;;;;5074349;28;20047;-75
2024/03/07 10:23:45;;;;;;;22.33;14.80;;;9.70;99.90;;;;;;5070026;28;20490;-73
2024/03/07 10:26:11;;;;;;;20.55;15.93;;;9.70;99.90;;;;;;5069069;28;20127;-75
2024/03/07 10:28:38;;;;;;;22.10;15.45;;;9.80;99.90;;;;;;5066894;28;20055;-76
2024/03/07 10:31:09;;;;;;;20.40;15.68;;;9.90;99.90;;;;;;5080692;28;20024;-75
2024/03/07 10:33:34;;;;;;;21.58;14.70;;;9.90;99.90;;;;;;5076080;28;20047;-76
2024/03/07 10:36:01;;;;;;;21.08;14.98;;;10.00;99.90;;;;;;5078418;28;20477;-73
2024/03/07 10:38:27;;;;;;;22.27;14.98;;;10.10;99.90;;;;;;5063108;28;20039;-73
2024/03/07 10:40:55;;;;;;;22.40;14.90;;;10.10;99.90;;;;;;5056314;28;20017;-73
2024/03/07 10:43:21;;;;;;;21.38;15.38;;;10.20;99.90;;;;;;5072997;28;20500;-75
2024/03/07 10:45:48;;;;;;;21.80;15.45;;;10.20;99.90;;;;;;5066331;28;20050;-76
2024/03/07 10:48:19;;;;;;;21.77;15.30;;;10.30;99.90;;;;;;5074341;28;20115;-75
2024/03/07 10:51:09;;;;;;;21.58;15.45;;;10.40;99.90;;;;;;5068983;28;20048;-75
2024/03/07 10:53:55;;;;;;;22.80;15.75;;;10.40;99.90;;;;;;5056663;28;20112;-75
2024/03/07 10:56:43;;;;;;;21.08;14.93;;;10.30;99.90;;;;;;5078488;28;20020;-75
2024/03/07 10:59:18;;;;;;;19.02;14.48;;;10.30;99.90;;;;;;5085957;28;20020;-75
2024/03/07 11:01:57;;;;;;;22.10;15.73;;;10.30;99.90;;;;;;5086051;28;20480;-75
2024/03/07 11:04:24;;;;;;;21.63;15.27;;;10.40;99.90;;;;;;5071809;28;20052;-75
2024/03/07 11:06:49;;;;;;;20.13;13.95;;;10.40;99.90;;;;;;5085631;28;20110;-75
2024/03/07 11:09:22;;;;;;;22.55;15.63;;;10.50;99.90;;;;;;5067534;28;20548;-75
2024/03/07 11:11:49;;;;;;;19.85;15.35;;;10.60;99.90;;;;;;5085894;28;20032;-73
2024/03/07 11:14:16;;;;;;;20.25;15.02;;;10.60;99.90;;;;;;5074087;28;20016;-72
2024/03/07 11:16:43;;;;;;;20.40;15.77;;;10.70;99.90;;;;;;5074737;28;20066;-72
2024/03/07 11:19:29;;;;;;;20.73;15.40;;;10.60;99.90;;;;;;5070713;28;20028;-72
2024/03/07 11:21:56;;;;;;;17.38;13.57;;;10.70;99.90;;;;;;5080281;28;20031;-72
2024/03/07 11:24:28;;;;;;;20.40;14.43;;;10.70;99.90;;;;;;5087352;28;20477;-72
2024/03/07 11:26:54;;;;;;;20.63;14.73;;;10.70;99.90;;;;;;5082685;28;20024;-71
2024/03/07 11:29:46;;;;;;;21.48;15.15;;;10.70;99.90;;;;;;5079464;28;20066;-74
2024/03/07 11:32:13;;;;;;;20.40;15.13;;;10.70;99.90;;;;;;5075723;28;20067;-73
2024/03/07 11:34:41;;;;;;;19.63;13.95;;;10.80;99.90;;;;;;5083602;28;20043;-74
2024/03/07 11:37:07;;;;;;;22.55;14.68;;;10.90;99.90;;;;;;5082167;28;20012;-74
2024/03/07 11:40:08;;;;;;;19.17;14.27;;;10.90;99.90;;;;;;5054220;28;20539;-73
2024/03/07 11:42:35;;;;;;;21.70;13.75;;;10.90;99.90;;;;;;5060635;28;20044;-74
2024/03/07 11:45:04;;;;;;;18.90;13.50;;;11.00;99.90;;;;;;5065491;28;20074;-74
2024/03/07 11:47:41;;;;;;;20.42;13.75;;;11.10;99.90;;;;;;5083355;28;20476;-74
2024/03/07 11:50:11;;;;;;;19.90;14.25;;;11.10;99.90;;;;;;5076421;28;20041;-72
2024/03/07 11:52:41;;;;;;;20.17;15.03;;;11.20;99.90;;;;;;5080015;28;20028;-74
2024/03/07 11:55:08;;;;;;;17.67;13.10;;;11.30;99.90;;;;;;5075051;28;20250;-72
2024/03/07 11:57:34;;;;;;;18.42;13.25;;;11.40;99.90;;;;;;5072475;28;20020;-74
2024/03/07 12:00:01;;;;;;;19.90;13.73;;;11.50;99.90;;;;;;5070695;28;20024;-74
2024/03/07 12:02:29;;;;;;;17.63;12.80;;;11.60;99.90;;;;;;5074343;28;20032;-74
2024/03/07 12:04:54;;;;;;;20.05;13.77;;;11.70;99.90;;;;;;5070865;28;20260;-74
2024/03/07 12:07:23;;;;;;;19.08;13.65;;;11.90;99.90;;;;;;5086529;28;20020;-75
2024/03/07 12:09:53;;;;;;;18.33;12.80;;;11.90;99.90;;;;;;5085743;28;20028;-75
2024/03/07 12:12:29;;;;;;;20.30;13.25;;;12.00;99.90;;;;;;5079916;28;20254;-75
2024/03/07 12:14:56;;;;;;;19.50;14.10;;;12.10;99.90;;;;;;5080357;28;20024;-75
2024/03/07 12:17:22;;;;;;;17.75;12.93;;;12.20;99.90;;;;;;5076105;28;20075;-75
2024/03/07 12:19:52;;;;;;;17.13;11.93;;;12.20;99.90;;;;;;5076932;28;20048;-74
2024/03/07 12:22:24;;;;;;;17.05;12.05;;;12.10;99.90;;;;;;5072393;28;20038;-75
2024/03/07 12:25:03;;;;;;;17.33;12.82;;;12.10;99.90;;;;;;5070323;28;20021;-74
2024/03/07 12:27:33;;;;;;;17.27;12.18;;;12.10;99.90;;;;;;5052059;28;20037;-75
2024/03/07 12:30:01;;;;;;;16.08;11.85;;;12.10;99.90;;;;;;5066502;28;20558;-73
2024/03/07 12:32:27;;;;;;;17.92;12.40;;;12.00;99.90;;;;;;5081734;28;20036;-73
2024/03/07 12:34:53;;;;;;;17.45;11.98;;;12.10;99.90;;;;;;5085039;28;20016;-74
2024/03/07 12:37:23;;;;;;;16.33;11.82;;;12.10;99.90;;;;;;5082943;28;20110;-74